createdAt,value
2022-08-11T00:00:09.122Z,48.00
2022-08-11T00:02:46.018Z,47.90
2022-08-11T00:05:17.138Z,47.90
2022-08-11T00:07:56.091Z,47.90
2022-08-11T00:10:29.046Z,48.00
2022-08-11T00:13:03.568Z,48.10
2022-08-11T00:15:45.666Z,48.00
2022-08-11T00:18:16.755Z,48.20
2022-08-11T00:20:45.359Z,48.30
2022-08-11T00:23:19.112Z,48.30
2022-08-11T00:25:49.708Z,48.20
2022-08-11T00:28:32.220Z,48.30
2022-08-11T00:31:04.400Z,48.30
2022-08-11T00:33:52.298Z,48.60
2022-08-11T00:36:25.560Z,48.60
2022-08-11T00:38:54.444Z,48.80
2022-08-11T00:41:40.709Z,49.00
2022-08-11T00:44:32.471Z,49.10
2022-08-11T00:47:16.069Z,49.40
2022-08-11T00:50:04.891Z,49.40
2022-08-11T00:52:53.628Z,49.40
2022-08-11T00:55:33.221Z,49.40
2022-08-11T00:58:22.643Z,49.60
2022-08-11T01:00:58.261Z,49.80
2022-08-11T01:03:33.891Z,50.10
2022-08-11T01:06:19.866Z,50.40
2022-08-11T01:09:18.009Z,50.60
2022-08-11T01:12:22.048Z,50.50
2022-08-11T01:15:00.573Z,50.60
2022-08-11T01:17:39.539Z,51.00
2022-08-11T01:20:47.970Z,51.00
2022-08-11T01:23:47.650Z,51.00
2022-08-11T01:26:41.836Z,51.00
2022-08-11T01:29:33.310Z,51.10
2022-08-11T01:32:15.246Z,51.00
2022-08-11T01:35:21.591Z,51.40
2022-08-11T01:37:57.376Z,51.40
2022-08-11T01:41:01.504Z,51.50
2022-08-11T01:44:20.637Z,51.50
2022-08-11T01:47:53.667Z,51.50
2022-08-11T01:50:42.696Z,51.40
2022-08-11T01:53:18.416Z,51.80
2022-08-11T01:56:04.077Z,51.80
2022-08-11T01:58:43.874Z,51.80
2022-08-11T02:01:32.968Z,52.10
2022-08-11T02:04:20.846Z,51.90
2022-08-11T02:07:02.551Z,52.10
2022-08-11T02:09:54.450Z,52.20
2022-08-11T02:12:52.447Z,52.30
2022-08-11T02:15:36.446Z,52.60
2022-08-11T02:18:52.646Z,52.90
2022-08-11T02:21:49.654Z,53.10
2022-08-11T02:24:33.974Z,53.40
2022-08-11T02:27:09.744Z,54.70
2022-08-11T02:29:56.535Z,53.60
2022-08-11T02:32:53.956Z,53.70
2022-08-11T02:35:36.734Z,54.10
2022-08-11T02:38:32.574Z,54.30
2022-08-11T02:41:02.499Z,55.60
2022-08-11T02:43:50.756Z,54.40
2022-08-11T02:46:31.062Z,54.10
2022-08-11T02:49:39.740Z,54.10
2022-08-11T02:52:25.092Z,54.20
2022-08-11T02:55:10.069Z,54.30
2022-08-11T02:58:03.937Z,54.30
2022-08-11T03:00:49.964Z,54.40
2022-08-11T03:03:34.551Z,54.40
2022-08-11T03:06:31.810Z,54.50
2022-08-11T03:08:58.583Z,54.70
2022-08-11T03:12:05.407Z,54.80
2022-08-11T03:15:05.745Z,55.10
2022-08-11T03:18:05.871Z,55.00
2022-08-11T03:20:54.275Z,55.20
2022-08-11T03:23:37.752Z,55.40
2022-08-11T03:26:10.022Z,55.60
2022-08-11T03:29:24.956Z,55.70
2022-08-11T03:32:21.632Z,55.70
2022-08-11T03:34:50.488Z,57.10
2022-08-11T03:37:48.297Z,56.00
2022-08-11T03:41:03.046Z,56.00
2022-08-11T03:44:04.566Z,56.40
2022-08-11T03:47:07.019Z,56.70
2022-08-11T03:50:13.404Z,56.70
2022-08-11T03:52:53.537Z,56.80
2022-08-11T03:55:41.696Z,57.10
2022-08-11T03:58:47.853Z,57.30
2022-08-11T04:01:32.418Z,57.50
2022-08-11T04:04:56.677Z,57.90
2022-08-11T04:08:00.628Z,58.00
2022-08-11T04:10:48.582Z,58.10
2022-08-11T04:13:49.858Z,58.10
2022-08-11T04:16:16.587Z,58.30
2022-08-11T04:18:52.260Z,58.90
2022-08-11T04:21:47.359Z,59.10
2022-08-11T04:24:37.830Z,59.50
2022-08-11T04:27:44.073Z,59.90
2022-08-11T04:30:47.501Z,60.10
2022-08-11T04:33:49.018Z,60.10
2022-08-11T04:36:54.187Z,60.40
2022-08-11T04:39:50.866Z,60.00
2022-08-11T04:43:13.798Z,60.40
2022-08-11T04:46:18.994Z,60.60
2022-08-11T04:49:43.862Z,60.80
2022-08-11T04:52:55.245Z,60.90
2022-08-11T04:56:01.893Z,61.10
2022-08-11T04:58:56.206Z,61.30
2022-08-11T05:01:44.134Z,61.50
2022-08-11T05:04:54.716Z,61.70
2022-08-11T05:07:58.927Z,61.60
2022-08-11T05:10:34.520Z,61.40
2022-08-11T05:13:31.074Z,61.70
2022-08-11T05:16:20.425Z,61.80
2022-08-11T05:19:11.919Z,62.00
2022-08-11T05:22:06.532Z,62.20
2022-08-11T05:25:07.845Z,62.10
2022-08-11T05:28:24.361Z,61.70
2022-08-11T05:31:30.502Z,62.30
2022-08-11T05:34:19.718Z,62.20
2022-08-11T05:36:59.263Z,62.20
2022-08-11T05:40:09.795Z,62.50
2022-08-11T05:43:02.251Z,62.50
2022-08-11T05:45:52.773Z,62.60
2022-08-11T05:48:52.306Z,62.30
2022-08-11T05:51:38.505Z,62.60
2022-08-11T05:54:29.736Z,62.70
2022-08-11T05:56:59.551Z,62.20
2022-08-11T05:59:28.417Z,61.60
2022-08-11T06:02:05.759Z,61.30
2022-08-11T06:04:33.585Z,61.30
2022-08-11T06:07:11.078Z,61.50
2022-08-11T06:09:49.193Z,61.50
2022-08-11T06:12:18.425Z,61.60
2022-08-11T06:14:46.403Z,61.20
2022-08-11T06:17:16.932Z,60.00
2022-08-11T06:19:48.406Z,59.30
2022-08-11T06:22:21.123Z,58.50
2022-08-11T06:24:58.902Z,57.90
2022-08-11T06:27:27.225Z,56.80
2022-08-11T06:29:55.889Z,56.00
2022-08-11T06:32:36.114Z,55.10
2022-08-11T06:35:22.113Z,54.70
2022-08-11T06:37:58.947Z,54.90
2022-08-11T06:40:43.409Z,55.00
2022-08-11T06:43:15.900Z,55.10
2022-08-11T06:46:03.884Z,55.20
2022-08-11T06:48:33.505Z,55.30
2022-08-11T06:51:12.543Z,55.50
2022-08-11T06:54:02.843Z,55.40
2022-08-11T07:00:04.702Z,55.70
2022-08-11T07:02:46.181Z,57.30
2022-08-11T07:05:19.004Z,56.10
2022-08-11T07:08:48.370Z,56.10
2022-08-11T07:12:07.884Z,56.00
2022-08-11T07:15:00.848Z,56.00
2022-08-11T07:17:31.713Z,56.10
2022-08-11T07:20:19.877Z,56.00
2022-08-11T07:23:13.857Z,55.70
2022-08-11T07:26:02.066Z,54.90
2022-08-11T07:28:49.980Z,54.70
2022-08-11T07:31:26.708Z,54.10
2022-08-11T07:34:07.243Z,53.00
2022-08-11T07:36:42.756Z,52.30
2022-08-11T07:39:18.271Z,51.60
2022-08-11T07:41:47.071Z,51.30
2022-08-11T07:44:16.589Z,51.30
2022-08-11T07:47:06.724Z,51.00
2022-08-11T07:49:55.542Z,50.40
2022-08-11T07:52:30.345Z,50.10
2022-08-11T07:54:59.282Z,50.20
2022-08-11T07:58:14.622Z,50.20
2022-08-11T08:01:01.049Z,50.00
2022-08-11T08:03:54.650Z,50.00
2022-08-11T08:06:41.344Z,49.80
2022-08-11T08:09:28.309Z,49.80
2022-08-11T08:12:15.415Z,49.70
2022-08-11T08:15:01.511Z,49.50
2022-08-11T08:18:20.670Z,49.20
2022-08-11T08:21:11.767Z,49.10
2022-08-11T08:23:39.930Z,49.20
2022-08-11T08:26:29.369Z,49.00
2022-08-11T08:29:20.847Z,48.80
2022-08-11T08:31:48.850Z,48.30
2022-08-11T08:34:17.170Z,48.10
2022-08-11T08:36:47.036Z,48.10
2022-08-11T08:39:14.760Z,48.10
2022-08-11T08:41:43.508Z,48.00
2022-08-11T08:44:37.129Z,47.90
2022-08-11T08:47:00.422Z,47.40
2022-08-11T08:49:33.243Z,47.60
2022-08-11T08:52:26.218Z,47.50
2022-08-11T08:54:58.033Z,47.10
2022-08-11T08:57:28.791Z,47.00
2022-08-11T08:59:56.756Z,47.00
2022-08-11T09:02:34.832Z,47.10
2022-08-11T09:05:04.295Z,46.80
2022-08-11T09:07:39.975Z,46.30
2022-08-11T09:10:09.419Z,45.40
2022-08-11T09:12:46.368Z,45.20
2022-08-11T09:15:15.132Z,44.80
2022-08-11T09:17:49.013Z,44.30
2022-08-11T09:20:24.611Z,44.20
2022-08-11T09:26:21.386Z,44.40
2022-08-11T09:28:50.003Z,43.30
2022-08-11T09:31:17.810Z,42.10
2022-08-11T09:33:51.485Z,41.50
2022-08-11T09:36:38.420Z,40.60
2022-08-11T09:39:25.305Z,40.50
2022-08-11T09:42:00.707Z,40.20
2022-08-11T09:44:48.792Z,40.20
2022-08-11T09:47:28.638Z,40.30
2022-08-11T09:50:00.450Z,39.40
2022-08-11T09:52:30.584Z,39.20
2022-08-11T09:54:58.599Z,38.90
2022-08-11T09:57:44.730Z,38.90
2022-08-11T10:00:15.062Z,38.80
2022-08-11T10:02:48.322Z,38.90
2022-08-11T10:05:36.785Z,38.90
2022-08-11T10:08:05.697Z,38.90
2022-08-11T10:10:37.344Z,39.10
2022-08-11T10:14:31.972Z,38.10
2022-08-11T10:15:59.880Z,38.00
2022-08-11T10:18:42.951Z,37.80
2022-08-11T10:21:14.421Z,37.60
2022-08-11T10:27:04.282Z,37.90
2022-08-11T10:29:55.041Z,37.90
2022-08-11T10:32:58.066Z,37.70
2022-08-11T10:35:29.466Z,37.70
2022-08-11T10:38:07.357Z,36.60
2022-08-11T10:40:40.183Z,35.90
2022-08-11T10:43:14.049Z,36.00
2022-08-11T10:46:04.482Z,35.90
2022-08-11T10:48:37.842Z,36.00
2022-08-11T10:51:50.031Z,36.10
2022-08-11T10:54:24.739Z,36.10
2022-08-11T10:57:12.364Z,36.10
2022-08-11T10:59:41.924Z,35.80
2022-08-11T11:02:14.068Z,34.90
2022-08-11T11:04:53.140Z,35.30
2022-08-11T11:07:31.061Z,35.60
2022-08-11T11:10:02.253Z,34.50
2022-08-11T11:12:52.894Z,34.80
2022-08-11T11:15:40.398Z,35.40
2022-08-11T11:18:35.732Z,35.00
2022-08-11T11:21:07.106Z,35.30
2022-08-11T11:23:56.099Z,34.10
2022-08-11T11:26:34.783Z,33.70
2022-08-11T11:29:25.126Z,33.40
2022-08-11T11:32:09.133Z,32.60
2022-08-11T11:35:00.198Z,33.40
2022-08-11T11:37:32.259Z,32.20
2022-08-11T11:40:01.044Z,32.10
2022-08-11T11:42:29.209Z,32.50
2022-08-11T11:45:00.465Z,32.80
2022-08-11T11:47:29.791Z,33.30
2022-08-11T11:49:57.612Z,31.50
2022-08-11T11:52:24.551Z,30.90
2022-08-11T11:54:55.500Z,31.20
2022-08-11T11:57:41.470Z,31.90
2022-08-11T12:00:44.536Z,31.60
2022-08-11T12:03:12.067Z,32.10
2022-08-11T12:05:40.741Z,31.30
2022-08-11T12:08:17.252Z,30.90
2022-08-11T12:11:15.626Z,31.10
2022-08-11T12:13:47.447Z,30.90
2022-08-11T12:16:34.895Z,32.40
2022-08-11T12:19:07.994Z,30.90
2022-08-11T12:21:37.135Z,30.20
2022-08-11T12:24:23.201Z,30.10
2022-08-11T12:27:17.164Z,30.30
2022-08-11T12:29:50.076Z,30.60
2022-08-11T12:32:23.099Z,30.00
2022-08-11T12:34:50.652Z,29.50
2022-08-11T12:37:23.625Z,29.50
2022-08-11T12:40:43.711Z,29.00
2022-08-11T12:43:24.401Z,28.70
2022-08-11T12:46:14.347Z,28.80
2022-08-11T12:49:16.103Z,28.40
2022-08-11T12:52:13.614Z,28.30
2022-08-11T12:54:49.736Z,28.10
2022-08-11T12:57:45.020Z,28.60
2022-08-11T13:00:31.523Z,28.50
2022-08-11T13:03:17.939Z,28.40
2022-08-11T13:05:47.365Z,28.30
2022-08-11T13:08:15.516Z,28.50
2022-08-11T13:11:02.459Z,27.80
2022-08-11T13:13:55.553Z,27.30
2022-08-11T13:16:18.425Z,27.30
2022-08-11T13:18:45.487Z,27.10
2022-08-11T13:21:20.078Z,27.50
2022-08-11T13:23:59.476Z,27.10
2022-08-11T13:26:47.237Z,26.70
2022-08-11T13:29:28.873Z,26.60
2022-08-11T13:31:59.950Z,26.50
2022-08-11T13:34:30.995Z,26.60
2022-08-11T13:37:00.778Z,26.40
2022-08-11T13:39:30.149Z,25.60
2022-08-11T13:41:59.694Z,25.80
2022-08-11T13:44:33.207Z,26.30
2022-08-11T13:47:06.536Z,25.80
2022-08-11T13:49:39.900Z,25.30
2022-08-11T13:52:12.788Z,24.90
2022-08-11T13:54:41.535Z,25.10
2022-08-11T13:57:13.556Z,24.80
2022-08-11T14:00:20.884Z,24.30
2022-08-11T14:02:54.605Z,24.50
2022-08-11T14:05:27.003Z,24.20
2022-08-11T14:08:01.072Z,24.00
2022-08-11T14:10:30.620Z,23.70
2022-08-11T14:13:27.213Z,24.70
2022-08-11T14:15:57.300Z,23.10
2022-08-11T14:18:28.750Z,23.40
2022-08-11T14:21:17.806Z,23.80
2022-08-11T14:23:50.820Z,23.60
2022-08-11T14:26:29.487Z,23.70
2022-08-11T14:29:05.750Z,23.70
2022-08-11T14:31:35.631Z,23.40
2022-08-11T14:34:05.993Z,23.10
2022-08-11T14:36:43.317Z,24.20
2022-08-11T14:39:22.166Z,22.70
2022-08-11T14:42:19.578Z,22.60
2022-08-11T14:45:07.318Z,22.60
2022-08-11T14:47:36.478Z,22.70
2022-08-11T14:50:10.879Z,22.90
2022-08-11T14:52:52.404Z,22.60
2022-08-11T14:55:39.114Z,22.20
2022-08-11T14:58:12.847Z,22.40
2022-08-11T15:00:42.865Z,21.60
2022-08-11T15:03:13.007Z,21.90
2022-08-11T15:05:56.561Z,21.80
2022-08-11T15:08:48.931Z,22.20
2022-08-11T15:11:36.350Z,22.00
2022-08-11T15:14:06.538Z,21.90
2022-08-11T15:16:53.076Z,21.60
2022-08-11T15:19:23.254Z,21.60
2022-08-11T15:22:09.045Z,21.70
2022-08-11T15:24:36.730Z,21.50
2022-08-11T15:27:28.086Z,21.40
2022-08-11T15:30:18.263Z,21.20
2022-08-11T15:33:20.563Z,21.30
2022-08-11T15:36:05.793Z,21.60
2022-08-11T15:38:36.288Z,21.40
2022-08-11T15:41:24.117Z,21.00
2022-08-11T15:44:13.074Z,20.90
2022-08-11T15:46:49.062Z,21.00
2022-08-11T15:49:22.378Z,21.00
2022-08-11T15:51:53.540Z,21.20
2022-08-11T15:54:24.992Z,21.00
2022-08-11T15:56:55.142Z,20.70
2022-08-11T15:59:43.809Z,20.90
2022-08-11T16:02:28.004Z,20.70
2022-08-11T16:04:56.722Z,21.00
2022-08-11T16:07:27.433Z,21.20
2022-08-11T16:10:09.416Z,21.00
2022-08-11T16:13:05.484Z,20.70
2022-08-11T16:16:08.463Z,20.90
2022-08-11T16:18:43.035Z,20.80
2022-08-11T16:21:33.632Z,20.80
2022-08-11T16:24:04.634Z,20.50
2022-08-11T16:27:11.433Z,20.90
2022-08-11T16:29:21.633Z,20.70
2022-08-11T16:32:09.539Z,21.00
2022-08-11T16:34:57.914Z,20.80
2022-08-11T16:37:44.470Z,20.60
2022-08-11T16:40:12.193Z,20.40
2022-08-11T16:43:06.140Z,20.40
2022-08-11T16:45:59.597Z,20.50
2022-08-11T16:48:35.916Z,20.70
2022-08-11T16:51:06.735Z,20.70
2022-08-11T16:53:59.821Z,20.80
2022-08-11T16:56:24.691Z,20.70
2022-08-11T16:59:13.660Z,20.60
2022-08-11T17:02:01.315Z,20.60
2022-08-11T17:05:05.175Z,20.80
2022-08-11T17:07:50.754Z,21.00
2022-08-11T17:11:01.565Z,20.50
2022-08-11T17:13:50.125Z,20.50
2022-08-11T17:16:22.776Z,20.40
2022-08-11T17:18:59.665Z,20.30
2022-08-11T17:21:35.523Z,20.30
2022-08-11T17:24:09.446Z,20.20
2022-08-11T17:26:56.818Z,20.60
2022-08-11T17:29:54.523Z,20.30
2022-08-11T17:33:00.592Z,20.30
2022-08-11T17:35:38.497Z,20.40
2022-08-11T17:38:09.875Z,20.60
2022-08-11T17:41:02.171Z,20.60
2022-08-11T17:43:49.050Z,20.50
2022-08-11T17:46:35.758Z,20.90
2022-08-11T17:49:07.705Z,21.20
2022-08-11T17:51:54.232Z,21.20
2022-08-11T17:54:42.096Z,21.20
2022-08-11T17:57:28.837Z,20.90
2022-08-11T17:59:57.844Z,21.00
2022-08-11T18:02:52.660Z,21.20
2022-08-11T18:05:24.331Z,21.30
2022-08-11T18:08:14.420Z,21.40
2022-08-11T18:11:01.290Z,21.50
2022-08-11T18:13:50.389Z,21.70
2022-08-11T18:16:38.009Z,21.90
2022-08-11T18:19:25.420Z,21.80
2022-08-11T18:22:16.046Z,21.90
2022-08-11T18:25:12.442Z,22.10
2022-08-11T18:28:01.822Z,22.30
2022-08-11T18:30:50.114Z,22.30
2022-08-11T18:34:05.460Z,23.60
2022-08-11T18:36:53.313Z,23.10
2022-08-11T18:39:41.723Z,24.00
2022-08-11T18:42:33.101Z,23.40
2022-08-11T18:45:25.948Z,23.60
2022-08-11T18:48:22.649Z,23.70
2022-08-11T18:51:29.925Z,24.00
2022-08-11T18:54:22.807Z,25.40
2022-08-11T18:57:08.655Z,24.60
2022-08-11T19:00:00.391Z,24.60
2022-08-11T19:02:48.872Z,24.80
2022-08-11T19:06:32.116Z,25.00
2022-08-11T19:08:46.813Z,25.30
2022-08-11T19:11:32.740Z,25.60
2022-08-11T19:14:20.621Z,25.90
2022-08-11T19:17:07.920Z,26.10
2022-08-11T19:19:56.306Z,26.40
2022-08-11T19:22:42.819Z,26.50
2022-08-11T19:25:30.121Z,26.60
2022-08-11T19:28:17.765Z,26.80
2022-08-11T19:31:03.755Z,27.00
2022-08-11T19:34:02.537Z,27.10
2022-08-11T19:36:57.119Z,27.30
2022-08-11T19:39:45.170Z,27.40
2022-08-11T19:42:33.404Z,27.70
2022-08-11T19:45:20.818Z,27.80
2022-08-11T19:48:30.644Z,28.20
2022-08-11T19:51:13.731Z,28.50
2022-08-11T19:54:00.252Z,28.80
2022-08-11T19:56:46.562Z,28.90
2022-08-11T19:59:32.830Z,29.60
2022-08-11T20:02:18.551Z,28.60
2022-08-11T20:05:03.873Z,28.90
2022-08-11T20:07:50.722Z,29.10
2022-08-11T20:10:40.259Z,29.30
2022-08-11T20:13:28.030Z,29.40
2022-08-11T20:16:15.197Z,29.70
2022-08-11T20:19:02.570Z,29.90
2022-08-11T20:21:48.953Z,30.00
2022-08-11T20:24:36.134Z,30.20
2022-08-11T20:27:24.594Z,30.30
2022-08-11T20:30:12.549Z,30.70
2022-08-11T20:32:59.795Z,30.80
2022-08-11T20:35:46.477Z,31.10
2022-08-11T20:38:34.846Z,31.10
2022-08-11T20:41:22.740Z,31.30
2022-08-11T20:44:09.864Z,31.60
2022-08-11T20:46:58.927Z,31.60
2022-08-11T20:49:53.842Z,31.90
2022-08-11T20:52:47.430Z,32.30
2022-08-11T20:55:46.359Z,32.70
2022-08-11T21:01:46.751Z,32.90
2022-08-11T21:04:33.197Z,33.20
2022-08-11T21:07:28.394Z,33.30
2022-08-11T21:13:26.797Z,33.20
2022-08-11T21:16:26.153Z,33.40
2022-08-11T21:19:59.798Z,33.40
2022-08-11T21:22:32.673Z,33.80
2022-08-11T21:25:18.975Z,34.10
2022-08-11T21:28:08.242Z,34.10
2022-08-11T21:30:57.645Z,35.20
2022-08-11T21:33:46.641Z,35.60
2022-08-11T21:36:33.921Z,35.60
2022-08-11T21:39:22.803Z,35.60
2022-08-11T21:42:12.186Z,35.70
2022-08-11T21:45:00.192Z,35.90
2022-08-11T21:47:47.166Z,36.20
2022-08-11T21:50:32.384Z,36.60
2022-08-11T21:53:19.124Z,36.80
2022-08-11T21:56:05.500Z,37.10
2022-08-11T21:58:51.761Z,37.30
2022-08-11T22:01:37.663Z,38.60
2022-08-11T22:04:25.627Z,37.50
2022-08-11T22:07:11.812Z,37.60
2022-08-11T22:09:57.637Z,37.60
2022-08-11T22:12:45.236Z,37.90
2022-08-11T22:15:31.828Z,38.10
2022-08-11T22:18:20.130Z,38.50
2022-08-11T22:21:06.644Z,38.70
2022-08-11T22:23:57.859Z,39.00
2022-08-11T22:26:47.366Z,39.10
2022-08-11T22:29:38.226Z,39.40
2022-08-11T22:32:38.509Z,39.50
2022-08-11T22:35:28.437Z,39.60
2022-08-11T22:38:15.760Z,39.80
2022-08-11T22:41:01.630Z,40.30
2022-08-11T22:43:47.618Z,40.30
2022-08-11T22:46:34.957Z,40.50
2022-08-11T22:49:21.434Z,40.70
2022-08-11T22:52:08.359Z,40.70
2022-08-11T22:54:53.890Z,40.80
2022-08-11T22:57:40.759Z,40.90
2022-08-11T23:00:46.948Z,41.00
2022-08-11T23:03:37.100Z,41.00
2022-08-11T23:06:24.200Z,41.00
2022-08-11T23:09:11.070Z,41.20
2022-08-11T23:12:07.249Z,41.30
2022-08-11T23:14:56.996Z,41.40
2022-08-11T23:17:43.390Z,41.30
2022-08-11T23:20:36.133Z,41.50
2022-08-11T23:23:33.323Z,41.30
2022-08-11T23:26:19.718Z,41.50
2022-08-11T23:29:06.282Z,41.50
2022-08-11T23:31:53.890Z,41.20
2022-08-11T23:35:37.289Z,41.60
2022-08-11T23:37:50.389Z,41.80
2022-08-11T23:40:35.922Z,41.70
2022-08-11T23:43:22.403Z,42.00
2022-08-11T23:46:08.191Z,42.10
2022-08-11T23:48:55.187Z,42.30
2022-08-11T23:51:41.723Z,42.60
2022-08-11T23:54:29.973Z,42.60
2022-08-11T23:57:17.442Z,42.70
